Time;durP1;ratioP1;P1;durP2;ratioP2;P2;SDS_P1;SDS_P2;PMS_P1;PMS_P2;Temp;Humidity;BMP_temperature;BMP_pressure;BME280_temperature;BME280_humidity;BME280_pressure;Samples;Min_cycle;Max_cycle;Signal;HPM_P1;HPM_P2
2023/09/26 00:02:30;;;;;;;6.82;5.38;;;16.70;99.90;;;;;;6220541;23;20008;-69
2023/09/26 00:05:19;;;;;;;7.60;5.45;;;16.70;99.90;;;;;;6240646;23;20012;-68
2023/09/26 00:08:05;;;;;;;7.05;5.43;;;16.60;99.90;;;;;;6240701;23;20099;-68
2023/09/26 00:10:51;;;;;;;7.40;5.38;;;16.60;99.90;;;;;;6240965;23;20011;-69
2023/09/26 00:13:37;;;;;;;10.00;5.78;;;16.60;99.90;;;;;;6220833;23;20016;-68
2023/09/26 00:16:23;;;;;;;7.65;5.53;;;16.60;99.90;;;;;;6238189;23;20020;-67
2023/09/26 00:19:09;;;;;;;7.20;5.50;;;16.50;99.90;;;;;;6242980;23;20015;-70
2023/09/26 00:21:55;;;;;;;7.82;5.88;;;16.60;99.90;;;;;;6239111;23;20087;-69
2023/09/26 00:24:41;;;;;;;6.53;5.45;;;16.60;99.90;;;;;;6240751;23;20008;-69
2023/09/26 00:27:27;;;;;;;8.25;6.22;;;16.50;99.90;;;;;;6242198;23;20024;-68
2023/09/26 00:30:14;;;;;;;11.20;7.85;;;16.50;99.90;;;;;;6241329;23;20059;-67
2023/09/26 00:33:00;;;;;;;9.70;6.50;;;16.50;99.90;;;;;;6240288;23;20019;-66
2023/09/26 00:35:46;;;;;;;10.00;7.05;;;16.50;99.90;;;;;;6242737;23;20503;-67
2023/09/26 00:38:32;;;;;;;11.52;7.32;;;16.50;99.90;;;;;;6241678;23;20016;-67
2023/09/26 00:41:18;;;;;;;10.35;8.10;;;16.50;99.90;;;;;;6239374;23;20016;-66
2023/09/26 00:44:06;;;;;;;14.88;9.93;;;16.50;99.90;;;;;;6239904;23;20011;-68
2023/09/26 00:46:52;;;;;;;14.10;12.27;;;16.50;99.90;;;;;;6241407;23;20023;-68
2023/09/26 00:49:38;;;;;;;17.80;12.98;;;16.50;99.90;;;;;;6239463;23;20091;-69
2023/09/26 00:52:24;;;;;;;15.15;11.68;;;16.50;99.90;;;;;;6240426;23;20031;-67
2023/09/26 00:55:13;;;;;;;18.05;13.05;;;16.60;99.90;;;;;;6240300;22;20004;-67
2023/09/26 00:57:59;;;;;;;15.90;11.90;;;16.50;99.90;;;;;;6240340;23;20008;-69
2023/09/26 01:00:46;;;;;;;14.55;11.85;;;16.60;99.90;;;;;;6240253;23;20030;-69
2023/09/26 01:03:34;;;;;;;14.38;11.18;;;16.50;99.90;;;;;;6239969;23;20455;-68
2023/09/26 01:06:19;;;;;;;15.45;11.27;;;16.60;99.90;;;;;;6241093;23;20015;-68
2023/09/26 01:09:06;;;;;;;14.40;11.50;;;16.60;99.90;;;;;;6239973;23;20051;-69
2023/09/26 01:11:51;;;;;;;14.45;11.25;;;16.50;99.90;;;;;;6239778;23;20083;-69
2023/09/26 01:14:37;;;;;;;12.95;9.38;;;16.50;99.90;;;;;;6219259;23;20405;-68
2023/09/26 01:17:23;;;;;;;16.15;11.55;;;16.50;99.90;;;;;;6239312;23;20461;-69
2023/09/26 01:20:15;;;;;;;12.15;9.77;;;16.50;99.90;;;;;;6241082;23;20016;-70
2023/09/26 01:23:07;;;;;;;12.20;10.00;;;16.50;99.90;;;;;;6238484;23;20393;-68
2023/09/26 01:25:54;;;;;;;11.00;8.65;;;16.60;99.90;;;;;;6241731;23;20019;-68
2023/09/26 01:28:40;;;;;;;11.65;8.70;;;16.50;99.90;;;;;;6239702;23;20008;-70
2023/09/26 01:31:26;;;;;;;11.23;9.15;;;16.50;99.90;;;;;;6239046;23;20337;-68
2023/09/26 01:34:12;;;;;;;17.05;9.57;;;16.50;99.90;;;;;;6243938;23;20463;-69
2023/09/26 01:36:58;;;;;;;10.98;8.13;;;16.50;99.90;;;;;;6241879;23;20008;-68
2023/09/26 01:39:44;;;;;;;10.40;8.40;;;16.50;99.90;;;;;;6243636;23;20031;-68
2023/09/26 01:42:30;;;;;;;12.60;7.65;;;16.50;99.90;;;;;;6243655;22;20039;-69
2023/09/26 01:45:16;;;;;;;8.38;7.07;;;16.50;99.90;;;;;;6242503;23;20039;-68
2023/09/26 01:48:05;;;;;;;9.75;8.13;;;16.50;99.90;;;;;;6241525;23;20023;-68
2023/09/26 01:50:51;;;;;;;9.70;7.90;;;16.50;99.90;;;;;;6242989;23;20004;-68
2023/09/26 01:53:37;;;;;;;10.02;7.13;;;16.50;99.90;;;;;;6242204;23;20015;-67
2023/09/26 01:56:23;;;;;;;11.55;8.05;;;16.50;99.90;;;;;;6243450;22;20012;-68
2023/09/26 01:59:08;;;;;;;10.85;7.93;;;16.40;99.90;;;;;;6242586;23;20012;-68
2023/09/26 02:01:54;;;;;;;8.93;6.80;;;16.40;99.90;;;;;;6240928;23;20035;-67
2023/09/26 02:04:40;;;;;;;8.35;7.38;;;16.40;99.90;;;;;;6241119;23;20090;-68
2023/09/26 02:07:26;;;;;;;9.98;7.75;;;16.40;99.90;;;;;;6243301;23;20027;-69
2023/09/26 02:10:13;;;;;;;8.45;6.85;;;16.40;99.90;;;;;;6243228;23;20004;-69
2023/09/26 02:12:59;;;;;;;12.73;8.32;;;16.40;99.90;;;;;;6241549;23;20453;-68
2023/09/26 02:15:45;;;;;;;10.05;7.18;;;16.30;99.90;;;;;;6231557;23;20012;-68
2023/09/26 02:18:32;;;;;;;10.45;7.57;;;16.30;99.90;;;;;;6244139;23;20046;-68
2023/09/26 02:21:20;;;;;;;9.48;7.60;;;16.30;99.90;;;;;;6229896;23;20013;-69
2023/09/26 02:24:06;;;;;;;9.98;7.63;;;16.30;99.90;;;;;;6233401;23;20012;-69
2023/09/26 02:26:55;;;;;;;11.27;7.80;;;16.20;99.90;;;;;;6243392;22;20098;-69
2023/09/26 02:29:41;;;;;;;13.27;7.90;;;16.20;99.90;;;;;;6240957;23;20039;-68
2023/09/26 02:32:27;;;;;;;10.02;7.43;;;16.20;99.90;;;;;;6243893;22;20008;-69
2023/09/26 02:35:15;;;;;;;11.00;7.63;;;16.20;99.90;;;;;;6243959;22;20327;-68
2023/09/26 02:38:01;;;;;;;11.13;7.82;;;16.20;99.90;;;;;;6242530;23;20012;-68
2023/09/26 02:40:47;;;;;;;10.35;7.68;;;16.10;99.90;;;;;;6229986;23;20011;-68
2023/09/26 02:43:33;;;;;;;12.00;7.47;;;16.10;99.90;;;;;;6243041;23;20012;-58
2023/09/26 02:46:19;;;;;;;9.10;7.38;;;16.10;99.90;;;;;;6241385;23;20012;-58
2023/09/26 02:49:05;;;;;;;9.55;7.53;;;16.10;99.90;;;;;;6243266;22;20036;-59
2023/09/26 02:51:51;;;;;;;10.68;7.97;;;16.10;99.90;;;;;;6242318;23;20020;-58
2023/09/26 02:54:37;;;;;;;9.75;7.05;;;16.10;99.90;;;;;;6243222;22;20095;-58
2023/09/26 02:57:23;;;;;;;8.63;7.50;;;16.10;99.90;;;;;;6242402;22;20327;-58
2023/09/26 03:00:16;;;;;;;8.73;7.55;;;16.00;99.90;;;;;;6242604;23;20015;-58
2023/09/26 03:03:02;;;;;;;10.30;7.45;;;16.00;99.90;;;;;;6240698;23;20047;-56
2023/09/26 03:05:49;;;;;;;11.13;8.00;;;16.00;99.90;;;;;;6242217;23;20003;-58
2023/09/26 03:08:35;;;;;;;10.15;7.82;;;16.00;99.90;;;;;;6240899;23;20450;-59
2023/09/26 03:11:21;;;;;;;9.55;7.85;;;15.90;99.90;;;;;;6242282;22;20008;-69
2023/09/26 03:14:07;;;;;;;11.25;7.82;;;15.90;99.90;;;;;;6242982;22;20008;-68
2023/09/26 03:16:53;;;;;;;9.70;7.75;;;15.90;99.90;;;;;;6242116;23;20417;-68
2023/09/26 03:19:40;;;;;;;15.52;8.40;;;15.90;99.90;;;;;;6242825;22;20012;-69
2023/09/26 03:22:26;;;;;;;10.25;8.00;;;15.90;99.90;;;;;;6240482;23;20039;-68
2023/09/26 03:25:12;;;;;;;9.50;7.70;;;15.90;99.90;;;;;;6242627;22;20036;-68
2023/09/26 03:28:03;;;;;;;11.18;8.68;;;15.80;99.90;;;;;;6241947;23;20333;-68
2023/09/26 03:30:49;;;;;;;10.10;7.90;;;15.80;99.90;;;;;;6241894;23;20083;-68
2023/09/26 03:33:35;;;;;;;12.55;8.23;;;15.80;99.90;;;;;;6243403;22;20020;-68
2023/09/26 03:36:21;;;;;;;10.98;8.35;;;15.80;99.90;;;;;;6241811;23;20044;-68
2023/09/26 03:39:07;;;;;;;10.00;8.50;;;15.80;99.90;;;;;;6241200;23;20031;-69
2023/09/26 03:41:53;;;;;;;10.70;8.52;;;15.80;99.90;;;;;;6239598;23;20018;-69
2023/09/26 03:44:42;;;;;;;10.50;7.78;;;15.70;99.90;;;;;;6241426;23;20008;-68
2023/09/26 03:47:28;;;;;;;14.38;8.60;;;15.70;99.90;;;;;;6241477;23;20095;-69
2023/09/26 03:50:14;;;;;;;11.65;9.00;;;15.70;99.90;;;;;;6243050;22;20004;-69
2023/09/26 03:53:00;;;;;;;11.40;8.48;;;15.70;99.90;;;;;;6242275;22;20012;-69
2023/09/26 03:55:55;;;;;;;11.35;9.13;;;15.70;99.90;;;;;;6241045;22;20004;-58
2023/09/26 03:58:41;;;;;;;9.93;8.13;;;15.70;99.90;;;;;;6241430;23;20023;-58
2023/09/26 04:01:27;;;;;;;11.95;8.50;;;15.70;99.90;;;;;;6239255;23;20438;-57
2023/09/26 04:04:13;;;;;;;14.05;8.90;;;15.70;99.90;;;;;;6241219;23;20401;-59
2023/09/26 04:06:59;;;;;;;12.48;9.10;;;15.60;99.90;;;;;;6241416;22;20028;-57
2023/09/26 04:09:45;;;;;;;10.55;8.50;;;15.60;99.90;;;;;;6230398;22;20456;-58
2023/09/26 04:12:31;;;;;;;10.90;9.02;;;15.60;99.90;;;;;;6241490;23;20019;-59
2023/09/26 04:15:17;;;;;;;13.80;9.30;;;15.60;99.90;;;;;;6240804;23;20019;-58
2023/09/26 04:18:07;;;;;;;12.02;9.20;;;15.50;99.90;;;;;;6242676;22;20602;-58
2023/09/26 04:20:52;;;;;;;12.38;9.45;;;15.50;99.90;;;;;;6239438;23;20358;-58
2023/09/26 04:23:39;;;;;;;11.73;9.50;;;15.50;99.90;;;;;;6242889;23;20008;-58
2023/09/26 04:26:25;;;;;;;12.73;9.50;;;15.50;99.90;;;;;;6240520;23;20012;-57
2023/09/26 04:29:11;;;;;;;11.98;9.10;;;15.50;99.90;;;;;;6241051;23;20008;-58
2023/09/26 04:31:57;;;;;;;11.63;9.43;;;15.40;99.90;;;;;;6240458;23;20011;-60
2023/09/26 04:34:43;;;;;;;11.27;9.07;;;15.40;99.90;;;;;;6240837;23;20016;-58
2023/09/26 04:37:29;;;;;;;14.57;9.40;;;15.40;99.90;;;;;;6219285;23;20012;-60
2023/09/26 04:40:16;;;;;;;12.38;9.18;;;15.40;99.90;;;;;;6241492;23;20103;-56
2023/09/26 04:43:04;;;;;;;13.40;9.38;;;15.40;99.90;;;;;;6239667;23;20004;-58
2023/09/26 04:45:50;;;;;;;15.55;9.43;;;15.30;99.90;;;;;;6240422;23;20004;-59
2023/09/26 04:48:36;;;;;;;12.40;9.63;;;15.40;99.90;;;;;;6240763;23;20024;-60
2023/09/26 04:51:22;;;;;;;12.35;9.57;;;15.30;99.90;;;;;;6240836;23;20089;-59
2023/09/26 04:54:07;;;;;;;12.27;9.98;;;15.40;99.90;;;;;;6242246;23;20012;-60
2023/09/26 04:56:53;;;;;;;11.90;8.75;;;15.30;99.90;;;;;;6240999;22;20075;-60
2023/09/26 04:59:39;;;;;;;13.15;10.25;;;15.30;99.90;;;;;;6241799;23;20012;-60
2023/09/26 05:02:25;;;;;;;15.27;10.32;;;15.30;99.90;;;;;;6238989;23;20016;-59
2023/09/26 05:05:12;;;;;;;11.57;9.63;;;15.30;99.90;;;;;;6240240;23;20013;-59
2023/09/26 05:07:58;;;;;;;13.90;10.68;;;15.40;99.90;;;;;;6240295;23;20062;-60
2023/09/26 05:10:44;;;;;;;12.45;10.27;;;15.30;99.90;;;;;;6240731;23;20062;-58
2023/09/26 05:13:30;;;;;;;14.15;10.32;;;15.40;99.90;;;;;;6240485;23;20008;-58
2023/09/26 05:16:16;;;;;;;12.38;9.27;;;15.40;99.90;;;;;;6239203;23;20019;-60
2023/09/26 05:19:02;;;;;;;12.13;9.48;;;15.30;99.90;;;;;;6240539;23;20012;-60
2023/09/26 05:21:48;;;;;;;13.93;10.48;;;15.30;99.90;;;;;;6239865;23;20009;-59
2023/09/26 05:24:34;;;;;;;14.73;10.63;;;15.40;99.90;;;;;;6240582;23;20008;-61
2023/09/26 05:27:20;;;;;;;12.45;10.10;;;15.40;99.90;;;;;;6241550;22;20097;-61
2023/09/26 05:30:07;;;;;;;13.60;9.73;;;15.30;99.90;;;;;;6239944;23;20319;-60
2023/09/26 05:32:53;;;;;;;13.05;10.23;;;15.40;99.90;;;;;;6239440;23;20020;-60
2023/09/26 05:35:39;;;;;;;14.63;10.57;;;15.30;99.90;;;;;;6240136;23;20015;-60
2023/09/26 05:38:26;;;;;;;13.85;10.02;;;15.30;99.90;;;;;;6239236;23;20024;-60
2023/09/26 05:41:11;;;;;;;16.85;10.50;;;15.40;99.90;;;;;;6240467;23;20015;-60
2023/09/26 05:43:57;;;;;;;14.80;9.73;;;15.40;99.90;;;;;;6239579;23;20094;-61
2023/09/26 05:46:43;;;;;;;13.70;10.85;;;15.40;99.90;;;;;;6227598;23;20020;-61
2023/09/26 05:49:30;;;;;;;12.75;9.50;;;15.40;99.90;;;;;;6240124;23;20008;-61
2023/09/26 05:52:16;;;;;;;14.13;11.13;;;15.30;99.90;;;;;;6239337;23;20012;-61
2023/09/26 05:55:03;;;;;;;15.90;10.32;;;15.40;99.90;;;;;;6240615;22;20016;-60
2023/09/26 05:57:49;;;;;;;17.85;11.50;;;15.40;99.90;;;;;;6240489;23;20090;-60
2023/09/26 06:00:36;;;;;;;12.90;10.23;;;15.40;99.90;;;;;;6238987;23;20350;-60
2023/09/26 06:03:22;;;;;;;11.95;9.82;;;15.40;99.90;;;;;;6239479;23;20583;-60
2023/09/26 06:06:08;;;;;;;18.13;11.43;;;15.40;99.90;;;;;;6239582;23;20042;-60
2023/09/26 06:08:54;;;;;;;12.80;9.68;;;15.40;99.90;;;;;;6240647;23;20012;-60
2023/09/26 06:11:40;;;;;;;13.35;11.27;;;15.50;99.90;;;;;;6240303;23;20019;-61
2023/09/26 06:14:26;;;;;;;16.33;10.38;;;15.50;99.90;;;;;;6240088;23;20012;-60
2023/09/26 06:17:12;;;;;;;13.70;10.85;;;15.60;99.90;;;;;;6239156;23;20086;-60
2023/09/26 06:19:58;;;;;;;12.25;9.73;;;15.60;99.90;;;;;;6241169;23;20330;-61
2023/09/26 06:22:44;;;;;;;12.00;9.30;;;15.60;99.90;;;;;;6242695;23;20438;-60
2023/09/26 06:25:30;;;;;;;14.48;10.35;;;15.70;99.90;;;;;;6243899;22;20399;-59
2023/09/26 06:28:16;;;;;;;17.20;9.82;;;15.70;99.90;;;;;;6241097;23;20103;-59
2023/09/26 06:31:09;;;;;;;14.18;10.40;;;15.80;99.90;;;;;;6242114;23;20012;-60
2023/09/26 06:33:59;;;;;;;17.15;9.52;;;15.80;99.90;;;;;;6242955;23;20276;-59
2023/09/26 06:36:51;;;;;;;15.63;10.25;;;15.90;99.90;;;;;;6242550;23;20005;-59
2023/09/26 06:39:37;;;;;;;12.57;10.20;;;15.90;99.90;;;;;;6243266;23;20024;-61
2023/09/26 06:42:23;;;;;;;15.45;11.30;;;15.90;99.90;;;;;;6241157;23;20012;-60
2023/09/26 06:45:09;;;;;;;13.15;9.43;;;16.00;99.90;;;;;;6243073;23;20012;-59
2023/09/26 06:47:56;;;;;;;18.05;10.18;;;16.10;99.90;;;;;;6240730;23;20016;-59
2023/09/26 06:50:43;;;;;;;14.18;10.38;;;16.10;99.90;;;;;;6240919;23;20012;-61
2023/09/26 06:53:29;;;;;;;15.57;10.85;;;16.10;99.90;;;;;;6242209;23;20072;-59
2023/09/26 06:56:15;;;;;;;14.43;10.13;;;16.20;99.90;;;;;;6241158;22;20005;-59
2023/09/26 06:59:01;;;;;;;15.25;10.57;;;16.20;99.90;;;;;;6242433;23;20354;-59
2023/09/26 07:01:47;;;;;;;14.13;9.55;;;16.30;99.90;;;;;;6241365;23;20004;-59
2023/09/26 07:04:33;;;;;;;14.60;10.27;;;16.30;99.90;;;;;;6242149;23;20019;-59
2023/09/26 07:07:19;;;;;;;14.02;10.30;;;16.40;99.90;;;;;;6240503;23;20016;-59
2023/09/26 07:10:07;;;;;;;13.52;10.45;;;16.40;99.90;;;;;;6241329;23;20004;-60
2023/09/26 07:12:53;;;;;;;14.77;10.57;;;16.40;99.90;;;;;;6243259;23;20011;-60
2023/09/26 07:15:40;;;;;;;13.43;10.18;;;16.50;99.90;;;;;;6241762;23;20043;-60
2023/09/26 07:18:26;;;;;;;13.82;10.73;;;16.50;99.90;;;;;;6240547;23;20066;-60
2023/09/26 07:21:12;;;;;;;12.07;10.27;;;16.60;99.90;;;;;;6240255;23;20008;-60
2023/09/26 07:23:59;;;;;;;14.27;10.40;;;16.60;99.90;;;;;;6243435;23;20468;-60
2023/09/26 07:26:45;;;;;;;15.05;11.13;;;16.60;99.90;;;;;;6241025;23;20097;-60
2023/09/26 07:29:31;;;;;;;15.15;10.98;;;16.70;99.90;;;;;;6241285;23;20004;-59
2023/09/26 07:32:17;;;;;;;14.10;9.65;;;16.80;99.90;;;;;;6219900;23;20077;-60
2023/09/26 07:35:04;;;;;;;16.05;11.75;;;16.80;99.90;;;;;;6241784;23;20111;-60
2023/09/26 07:37:50;;;;;;;17.10;10.80;;;16.80;99.90;;;;;;6243129;22;20012;-59
2023/09/26 07:40:36;;;;;;;16.88;10.95;;;16.80;99.90;;;;;;6240088;23;20015;-59
2023/09/26 07:43:22;;;;;;;15.70;10.98;;;16.90;99.90;;;;;;6240033;23;20016;-60
2023/09/26 07:46:09;;;;;;;18.63;12.98;;;16.90;99.90;;;;;;6241477;23;20008;-59
2023/09/26 07:48:55;;;;;;;16.10;10.85;;;16.90;99.90;;;;;;6242164;23;20449;-60
2023/09/26 07:51:41;;;;;;;18.88;11.45;;;16.90;99.90;;;;;;6240260;23;20446;-59
2023/09/26 07:54:27;;;;;;;18.15;10.95;;;17.00;99.90;;;;;;6241090;23;20016;-59
2023/09/26 07:57:13;;;;;;;18.60;11.43;;;17.00;99.90;;;;;;6240901;22;20023;-59
2023/09/26 07:59:59;;;;;;;15.45;10.70;;;17.10;99.90;;;;;;6220395;23;20012;-60
2023/09/26 08:02:45;;;;;;;14.88;9.10;;;17.20;99.90;;;;;;6240686;23;20016;-60
2023/09/26 08:05:31;;;;;;;14.43;10.43;;;17.20;99.90;;;;;;6240609;23;20277;-59
2023/09/26 08:08:17;;;;;;;20.92;11.57;;;17.20;99.90;;;;;;6240631;23;20051;-61
2023/09/26 08:11:08;;;;;;;13.73;9.40;;;17.30;99.90;;;;;;6242728;23;20403;-60
2023/09/26 08:13:55;;;;;;;15.65;10.85;;;17.40;99.90;;;;;;6239123;23;20034;-60
2023/09/26 08:16:41;;;;;;;15.75;11.57;;;17.40;99.90;;;;;;6240234;23;20048;-60
2023/09/26 08:19:27;;;;;;;15.90;10.85;;;17.50;99.90;;;;;;6240745;23;20050;-60
2023/09/26 08:22:12;;;;;;;18.80;12.00;;;17.50;99.90;;;;;;6242566;22;20008;-60
2023/09/26 08:24:58;;;;;;;15.00;10.13;;;17.60;99.90;;;;;;6240484;23;20011;-61
2023/09/26 08:27:44;;;;;;;15.15;10.65;;;17.60;99.90;;;;;;6240433;23;20023;-61
2023/09/26 08:30:33;;;;;;;15.77;10.30;;;17.70;99.90;;;;;;6219321;23;20009;-60
2023/09/26 08:33:19;;;;;;;16.40;10.23;;;17.80;99.90;;;;;;6240640;23;20397;-59
2023/09/26 08:36:19;;;;;;;15.43;9.38;;;17.80;99.90;;;;;;6240516;23;20008;-59
2023/09/26 08:39:05;;;;;;;16.00;11.00;;;17.90;99.90;;;;;;6240263;23;20066;-60
2023/09/26 08:41:51;;;;;;;14.15;9.52;;;17.90;99.90;;;;;;6240217;23;20032;-59
2023/09/26 08:44:37;;;;;;;13.98;8.93;;;18.00;99.90;;;;;;6240390;23;20020;-59
2023/09/26 08:47:24;;;;;;;15.85;9.35;;;18.00;99.90;;;;;;6238972;23;20123;-58
2023/09/26 08:50:10;;;;;;;15.88;10.13;;;18.10;99.90;;;;;;6241806;23;20004;-59
2023/09/26 08:52:59;;;;;;;19.02;10.40;;;18.20;99.90;;;;;;6239937;23;20023;-60
2023/09/26 08:55:49;;;;;;;14.27;9.93;;;18.20;99.90;;;;;;6241602;22;20061;-59
2023/09/26 08:58:36;;;;;;;14.52;10.35;;;18.30;99.90;;;;;;6241199;23;20046;-60
2023/09/26 09:01:23;;;;;;;19.98;10.82;;;18.30;99.90;;;;;;6242372;22;20584;-59
2023/09/26 09:04:10;;;;;;;18.42;10.43;;;18.40;99.90;;;;;;6240267;23;20012;-60
2023/09/26 09:07:06;;;;;;;12.10;9.35;;;18.40;99.90;;;;;;6239867;23;20016;-59
2023/09/26 09:10:13;;;;;;;13.75;8.88;;;18.50;99.90;;;;;;6239206;23;20330;-58
2023/09/26 09:13:03;;;;;;;13.93;9.50;;;18.60;99.90;;;;;;6240251;23;20016;-60
2023/09/26 09:15:49;;;;;;;12.43;8.60;;;18.60;99.90;;;;;;6241047;23;20069;-60
2023/09/26 09:18:35;;;;;;;12.65;8.65;;;18.70;99.90;;;;;;6241563;23;20005;-59
2023/09/26 09:21:30;;;;;;;13.55;8.20;;;18.80;99.90;;;;;;6239736;23;20091;-58
2023/09/26 09:24:16;;;;;;;11.30;7.72;;;18.80;99.90;;;;;;6242298;23;20004;-59
2023/09/26 09:27:02;;;;;;;12.65;8.35;;;19.00;99.90;;;;;;6241802;23;20023;-59
2023/09/26 09:30:02;;;;;;;16.02;9.60;;;19.00;99.90;;;;;;6218521;23;20079;-59
2023/09/26 09:32:48;;;;;;;11.70;8.23;;;19.10;99.90;;;;;;6238604;23;20012;-59
2023/09/26 09:35:35;;;;;;;11.98;8.55;;;19.10;99.90;;;;;;6240394;23;20485;-59
2023/09/26 09:38:21;;;;;;;15.73;9.43;;;19.20;99.90;;;;;;6240192;23;20020;-59
2023/09/26 09:41:08;;;;;;;14.27;9.00;;;19.30;99.90;;;;;;6238573;23;20019;-60
2023/09/26 09:43:54;;;;;;;14.73;7.85;;;19.30;99.90;;;;;;6239243;23;20036;-59
2023/09/26 09:46:43;;;;;;;11.57;8.07;;;19.40;99.90;;;;;;6241372;23;20465;-59
2023/09/26 09:49:32;;;;;;;15.10;7.30;;;19.40;99.90;;;;;;6238040;23;20077;-59
2023/09/26 09:52:19;;;;;;;12.52;8.80;;;19.50;99.90;;;;;;6241672;23;20039;-60
2023/09/26 09:55:08;;;;;;;10.48;7.60;;;19.60;99.90;;;;;;6238570;22;20057;-61
2023/09/26 09:57:56;;;;;;;10.18;7.25;;;19.60;99.90;;;;;;6241577;23;20039;-59
2023/09/26 10:00:43;;;;;;;13.13;7.47;;;19.70;99.90;;;;;;6242172;23;20090;-60
2023/09/26 10:03:29;;;;;;;10.45;6.32;;;19.80;99.90;;;;;;6239669;23;20012;-60
2023/09/26 10:06:15;;;;;;;10.45;6.75;;;19.80;99.90;;;;;;6241669;23;20008;-58
2023/09/26 10:09:03;;;;;;;10.15;6.65;;;19.90;99.90;;;;;;6242368;23;20453;-59
2023/09/26 10:11:54;;;;;;;10.40;6.63;;;20.00;99.90;;;;;;6242570;23;20400;-59
2023/09/26 10:14:41;;;;;;;8.80;6.10;;;20.10;99.90;;;;;;6242829;23;20443;-59
2023/09/26 10:17:27;;;;;;;6.10;5.30;;;20.20;99.90;;;;;;6217378;23;20175;-58
2023/09/26 10:20:16;;;;;;;9.18;6.15;;;20.30;99.90;;;;;;6242556;23;20023;-59
2023/09/26 10:23:11;;;;;;;8.88;5.30;;;20.30;99.90;;;;;;6241740;23;20008;-59
2023/09/26 10:26:00;;;;;;;;;;;20.40;99.90;;;;;;6222745;23;20057;-60
2023/09/26 10:28:46;;;;;;;7.05;4.55;;;20.50;99.90;;;;;;6239732;23;19907;-60
2023/09/26 10:31:36;;;;;;;10.18;5.53;;;20.60;99.90;;;;;;6242990;23;20004;-60
2023/09/26 10:34:36;;;;;;;10.80;4.97;;;20.70;99.90;;;;;;6242078;23;20434;-59
2023/09/26 10:37:22;;;;;;;9.32;5.43;;;20.80;99.90;;;;;;6241750;23;20009;-59
2023/09/26 10:40:15;;;;;;;13.60;5.85;;;20.80;99.90;;;;;;6242377;22;20043;-59
2023/09/26 10:43:02;;;;;;;6.97;4.25;;;20.90;99.90;;;;;;6242079;23;20111;-59
2023/09/26 10:45:49;;;;;;;7.90;4.50;;;20.90;99.90;;;;;;6241645;23;20011;-59
2023/09/26 10:48:34;;;;;;;9.50;4.55;;;21.00;99.90;;;;;;6240707;23;20052;-60
2023/09/26 10:51:20;;;;;;;8.98;5.10;;;21.10;99.90;;;;;;6242496;23;20086;-60
2023/09/26 10:54:06;;;;;;;6.68;4.53;;;21.20;99.90;;;;;;6242249;23;20008;-60
2023/09/26 10:56:52;;;;;;;6.65;4.50;;;21.30;99.90;;;;;;6242257;22;20015;-60
2023/09/26 10:59:38;;;;;;;6.95;4.65;;;21.40;99.90;;;;;;6239967;23;20450;-59
2023/09/26 11:02:24;;;;;;;12.70;5.30;;;21.40;99.90;;;;;;6243448;23;20460;-59
2023/09/26 11:05:12;;;;;;;7.80;5.00;;;21.50;99.70;;;;;;6242358;23;20038;-60
2023/09/26 11:07:58;;;;;;;6.35;5.00;;;21.60;99.60;;;;;;6241518;23;20020;-59
2023/09/26 13:54:16;;;;;;;6.45;3.90;;;24.80;94.30;;;;;;6166010;22;1251046;-73
2023/09/26 13:57:02;;;;;;;5.18;3.88;;;24.80;94.40;;;;;;6180100;23;20045;-74
2023/09/26 13:59:50;;;;;;;5.05;4.10;;;24.80;94.30;;;;;;6178484;23;20019;-72
2023/09/26 14:02:36;;;;;;;5.80;3.80;;;24.80;94.40;;;;;;6178846;23;20088;-72
2023/09/26 14:05:23;;;;;;;8.05;5.03;;;24.90;94.30;;;;;;6178657;23;20522;-71
2023/09/26 14:08:09;;;;;;;6.63;4.18;;;24.90;94.30;;;;;;6177561;23;20095;-73
2023/09/26 14:10:55;;;;;;;11.55;4.53;;;24.90;94.10;;;;;;6179123;23;20024;-73
2023/09/26 14:13:41;;;;;;;7.72;4.18;;;25.00;94.10;;;;;;6177525;23;20459;-71
2023/09/26 14:16:27;;;;;;;5.45;3.80;;;25.00;94.00;;;;;;6178079;23;20013;-72
2023/09/26 14:19:13;;;;;;;7.65;3.67;;;24.90;93.80;;;;;;6176461;23;20012;-72
2023/09/26 14:21:59;;;;;;;9.73;4.38;;;24.80;93.80;;;;;;6175967;23;20032;-73
2023/09/26 14:24:44;;;;;;;5.97;4.50;;;24.80;93.90;;;;;;6177862;23;20009;-72
2023/09/26 14:27:30;;;;;;;7.20;4.18;;;24.80;93.80;;;;;;6178273;23;20012;-72
2023/09/26 14:30:16;;;;;;;6.57;4.63;;;24.90;93.90;;;;;;6179450;23;20013;-72
2023/09/26 14:33:03;;;;;;;7.50;4.18;;;24.90;93.80;;;;;;6177934;23;20033;-72
2023/09/26 14:35:49;;;;;;;4.38;3.47;;;24.80;93.70;;;;;;6177358;23;20205;-71
2023/09/26 14:38:34;;;;;;;6.72;4.07;;;24.80;93.70;;;;;;6178207;23;20044;-72
2023/09/26 14:41:20;;;;;;;9.93;4.22;;;24.70;93.70;;;;;;6178684;23;20084;-69
2023/09/26 14:44:06;;;;;;;6.78;4.38;;;24.70;93.70;;;;;;6178049;23;20008;-72
2023/09/26 14:46:52;;;;;;;6.35;4.07;;;24.70;93.70;;;;;;6177999;23;20099;-72
2023/09/26 14:49:38;;;;;;;9.68;4.20;;;24.70;93.70;;;;;;6178490;23;20013;-72
2023/09/26 14:52:24;;;;;;;8.00;4.40;;;24.70;93.70;;;;;;6176697;23;20062;-71
2023/09/26 14:55:10;;;;;;;9.57;4.45;;;24.70;93.70;;;;;;6177891;23;20016;-71
2023/09/26 14:57:56;;;;;;;6.28;3.97;;;24.90;93.80;;;;;;6177346;23;20012;-72
2023/09/26 15:00:43;;;;;;;8.35;4.10;;;24.90;93.60;;;;;;6179551;23;20019;-72
2023/09/26 15:03:29;;;;;;;6.07;3.65;;;25.00;93.70;;;;;;6177598;23;19997;-73
2023/09/26 15:06:15;;;;;;;9.02;4.50;;;25.00;93.60;;;;;;6177974;23;20431;-72
2023/09/26 15:09:01;;;;;;;7.15;4.63;;;25.10;93.50;;;;;;6177388;23;20013;-71
2023/09/26 15:11:48;;;;;;;8.55;4.07;;;25.20;93.30;;;;;;6177817;23;20726;-72
2023/09/26 15:14:34;;;;;;;5.03;3.83;;;25.20;93.20;;;;;;6178027;23;20045;-72
2023/09/26 15:17:19;;;;;;;7.90;4.38;;;25.30;93.20;;;;;;6177363;23;20304;-72
2023/09/26 15:20:06;;;;;;;7.57;4.00;;;25.30;93.20;;;;;;6177407;23;20040;-72
2023/09/26 15:22:52;;;;;;;11.70;4.15;;;25.30;93.20;;;;;;6179256;23;20015;-72
2023/09/26 15:25:38;;;;;;;8.02;3.88;;;25.30;93.00;;;;;;6177618;23;20470;-72
2023/09/26 15:28:23;;;;;;;4.65;3.58;;;25.30;93.00;;;;;;6177597;23;20023;-72
2023/09/26 15:31:10;;;;;;;6.28;4.22;;;25.40;92.90;;;;;;6177837;23;20017;-72
2023/09/26 15:33:56;;;;;;;11.00;3.75;;;25.40;92.70;;;;;;6177842;23;20028;-73
2023/09/26 15:36:42;;;;;;;12.90;4.15;;;25.40;92.80;;;;;;6179199;23;20462;-72
2023/09/26 15:39:29;;;;;;;5.05;3.85;;;25.40;92.80;;;;;;6177707;23;20019;-72
2023/09/26 15:42:16;;;;;;;5.85;3.90;;;25.30;92.90;;;;;;6177615;23;20013;-73
2023/09/26 15:45:03;;;;;;;7.30;4.55;;;25.30;93.00;;;;;;6177971;23;20071;-72
2023/09/26 15:47:49;;;;;;;7.60;4.15;;;25.30;93.10;;;;;;6177572;23;20009;-72
2023/09/26 15:50:35;;;;;;;7.68;4.60;;;25.30;93.10;;;;;;6177185;23;20013;-72
2023/09/26 15:53:21;;;;;;;5.90;4.35;;;25.30;93.20;;;;;;6176724;23;20049;-70
2023/09/26 15:56:08;;;;;;;8.40;4.50;;;25.30;93.20;;;;;;6177812;23;20513;-71
2023/09/26 15:58:53;;;;;;;6.10;4.22;;;25.30;93.20;;;;;;6179430;23;20088;-71
2023/09/26 16:01:39;;;;;;;8.88;4.10;;;25.20;93.10;;;;;;6179630;23;20009;-72
2023/09/26 16:04:25;;;;;;;7.88;5.70;;;25.10;93.10;;;;;;6179581;23;20005;-72
2023/09/26 16:07:11;;;;;;;5.22;3.78;;;25.10;93.10;;;;;;6179259;23;20040;-72
2023/09/26 16:09:57;;;;;;;7.00;5.03;;;24.90;93.10;;;;;;6179390;23;20013;-73
2023/09/26 16:12:44;;;;;;;6.75;4.35;;;24.90;93.30;;;;;;6178890;23;20032;-72
2023/09/26 16:15:30;;;;;;;7.10;4.07;;;24.80;93.20;;;;;;6179457;23;20044;-73
2023/09/26 16:18:16;;;;;;;7.60;4.78;;;24.70;93.20;;;;;;6179261;23;20009;-72
2023/09/26 16:21:03;;;;;;;7.28;4.50;;;24.70;93.10;;;;;;6179370;23;20009;-72
2023/09/26 16:23:51;;;;;;;5.70;4.07;;;24.60;93.20;;;;;;6179153;23;20005;-71
2023/09/26 16:26:37;;;;;;;6.68;4.18;;;24.50;93.30;;;;;;6158510;23;20350;-73
2023/09/26 16:29:23;;;;;;;6.65;4.80;;;24.50;93.30;;;;;;6178699;23;20013;-71
2023/09/26 16:32:09;;;;;;;5.72;4.82;;;24.40;93.40;;;;;;6180181;23;20012;-72
2023/09/26 16:34:56;;;;;;;6.10;4.82;;;24.30;93.50;;;;;;6158698;23;20513;-73
2023/09/26 16:37:41;;;;;;;7.32;5.32;;;24.30;93.60;;;;;;6180227;23;20132;-70
2023/09/26 16:40:27;;;;;;;8.98;4.53;;;24.20;93.60;;;;;;6179809;23;20035;-72
2023/09/26 16:43:13;;;;;;;7.20;4.00;;;24.10;93.70;;;;;;6179444;23;20005;-74
2023/09/26 16:45:59;;;;;;;6.70;4.63;;;24.00;93.80;;;;;;6179237;23;20012;-69
2023/09/26 16:48:45;;;;;;;7.07;4.53;;;24.00;93.90;;;;;;6178663;23;20330;-73
2023/09/26 16:51:31;;;;;;;8.05;4.75;;;23.90;94.00;;;;;;6179563;23;20013;-74
2023/09/26 16:54:18;;;;;;;8.25;4.57;;;23.80;94.10;;;;;;6179688;23;20017;-74
2023/09/26 16:57:04;;;;;;;10.68;4.82;;;23.70;94.10;;;;;;6178528;23;20072;-74
2023/09/26 16:59:50;;;;;;;8.20;5.35;;;23.60;94.20;;;;;;6181218;23;20577;-74
2023/09/26 17:02:36;;;;;;;6.53;4.70;;;23.50;94.20;;;;;;6158538;23;20013;-74